sensor_id;sensor_type;location;lat;lon;timestamp;pressure;altitude;pressure_sealevel;temperature;humidity
48968;BME280;46511;53.148;8.204;2023-04-15T00:02:16;101068.28;;;8.31;100.00
48968;BME280;46511;53.148;8.204;2023-04-15T00:04:48;101064.78;;;8.31;100.00
48968;BME280;46511;53.148;8.204;2023-04-15T00:07:19;101060.47;;;8.28;100.00
48968;BME280;46511;53.148;8.204;2023-04-15T00:09:51;101062.19;;;8.29;100.00
48968;BME280;46511;53.148;8.204;2023-04-15T00:12:25;101057.84;;;8.28;100.00
48968;BME280;46511;53.148;8.204;2023-04-15T00:14:57;101055.13;;;8.30;100.00
48968;BME280;46511;53.148;8.204;2023-04-15T00:17:29;101055.19;;;8.28;100.00
48968;BME280;46511;53.148;8.204;2023-04-15T00:20:00;101054.41;;;8.26;100.00
48968;BME280;46511;53.148;8.204;2023-04-15T00:22:32;101049.22;;;8.23;100.00
48968;BME280;46511;53.148;8.204;2023-04-15T00:25:04;101052.88;;;8.21;100.00
48968;BME280;46511;53.148;8.204;2023-04-15T00:27:35;101060.88;;;8.19;100.00
48968;BME280;46511;53.148;8.204;2023-04-15T00:30:07;101053.19;;;8.13;100.00
48968;BME280;46511;53.148;8.204;2023-04-15T00:32:38;101055.19;;;8.08;100.00
48968;BME280;46511;53.148;8.204;2023-04-15T00:35:10;101055.25;;;8.07;100.00
48968;BME280;46511;53.148;8.204;2023-04-15T00:37:42;101054.38;;;8.06;100.00
48968;BME280;46511;53.148;8.204;2023-04-15T00:40:13;101056.28;;;8.02;100.00
48968;BME280;46511;53.148;8.204;2023-04-15T00:42:49;101064.97;;;8.06;100.00
48968;BME280;46511;53.148;8.204;2023-04-15T00:45:21;101057.13;;;8.03;100.00
48968;BME280;46511;53.148;8.204;2023-04-15T00:47:53;101054.56;;;8.01;100.00
48968;BME280;46511;53.148;8.204;2023-04-15T00:50:24;101054.56;;;8.01;100.00
48968;BME280;46511;53.148;8.204;2023-04-15T00:52:55;101050.13;;;8.02;100.00
48968;BME280;46511;53.148;8.204;2023-04-15T00:55:27;101052.00;;;8.00;100.00
48968;BME280;46511;53.148;8.204;2023-04-15T00:57:58;101052.00;;;8.00;100.00
48968;BME280;46511;53.148;8.204;2023-04-15T01:00:29;101057.28;;;8.00;100.00
48968;BME280;46511;53.148;8.204;2023-04-15T01:03:01;101057.53;;;7.94;100.00
48968;BME280;46511;53.148;8.204;2023-04-15T01:05:33;101050.44;;;7.94;100.00
48968;BME280;46511;53.148;8.204;2023-04-15T01:08:04;101062.88;;;7.92;100.00
48968;BME280;46511;53.148;8.204;2023-04-15T01:10:36;101056.09;;;7.87;100.00
48968;BME280;46511;53.148;8.204;2023-04-15T01:13:07;101061.16;;;7.91;100.00
48968;BME280;46511;53.148;8.204;2023-04-15T01:15:39;101057.66;;;7.91;100.00
48968;BME280;46511;53.148;8.204;2023-04-15T01:18:10;101048.00;;;7.90;100.00
48968;BME280;46511;53.148;8.204;2023-04-15T01:20:41;101050.41;;;7.96;100.00
48968;BME280;46511;53.148;8.204;2023-04-15T01:23:13;101060.25;;;7.92;100.00
48968;BME280;46511;53.148;8.204;2023-04-15T01:25:44;101055.88;;;7.91;100.00
48968;BME280;46511;53.148;8.204;2023-04-15T01:28:16;101045.22;;;7.93;100.00
48968;BME280;46511;53.148;8.204;2023-04-15T01:30:47;101043.44;;;7.93;100.00
48968;BME280;46511;53.148;8.204;2023-04-15T01:33:19;101053.47;;;8.07;100.00
48968;BME280;46511;53.148;8.204;2023-04-15T01:35:50;101050.75;;;8.09;100.00
48968;BME280;46511;53.148;8.204;2023-04-15T01:38:21;101050.00;;;8.05;100.00
48968;BME280;46511;53.148;8.204;2023-04-15T01:40:52;101046.31;;;8.09;100.00
48968;BME280;46511;53.148;8.204;2023-04-15T01:43:27;101051.06;;;8.01;100.00
48968;BME280;46511;53.148;8.204;2023-04-15T01:45:59;101048.41;;;8.01;100.00
48968;BME280;46511;53.148;8.204;2023-04-15T01:48:30;101044.59;;;8.08;100.00
48968;BME280;46511;53.148;8.204;2023-04-15T01:51:02;101049.03;;;8.08;100.00
48968;BME280;46511;53.148;8.204;2023-04-15T01:53:34;101044.84;;;8.02;100.00
48968;BME280;46511;53.148;8.204;2023-04-15T01:56:00;101045.59;;;8.06;100.00
48968;BME280;46511;53.148;8.204;2023-04-15T01:58:32;101048.25;;;8.06;100.00
48968;BME280;46511;53.148;8.204;2023-04-15T02:01:03;101046.78;;;7.98;100.00
48968;BME280;46511;53.148;8.204;2023-04-15T02:03:30;101046.94;;;7.94;100.00
48968;BME280;46511;53.148;8.204;2023-04-15T02:06:01;101046.72;;;7.78;100.00
48968;BME280;46511;53.148;8.204;2023-04-15T02:08:32;101045.06;;;7.76;100.00
48968;BME280;46511;53.148;8.204;2023-04-15T02:11:04;101040.31;;;7.84;100.00
48968;BME280;46511;53.148;8.204;2023-04-15T02:13:35;101041.94;;;7.88;100.00
48968;BME280;46511;53.148;8.204;2023-04-15T02:16:02;101052.59;;;7.85;100.00
48968;BME280;46511;53.148;8.204;2023-04-15T02:18:28;101050.25;;;7.79;100.00
48968;BME280;46511;53.148;8.204;2023-04-15T02:20:59;101045.50;;;7.87;100.00
48968;BME280;46511;53.148;8.204;2023-04-15T02:23:31;101044.44;;;7.91;100.00
48968;BME280;46511;53.148;8.204;2023-04-15T02:26:02;101052.75;;;7.82;100.00
48968;BME280;46511;53.148;8.204;2023-04-15T02:28:33;101048.78;;;7.92;100.00
48968;BME280;46511;53.148;8.204;2023-04-15T02:31:05;101059.59;;;7.87;100.00
48968;BME280;46511;53.148;8.204;2023-04-15T02:33:37;101056.72;;;7.92;100.00
48968;BME280;46511;53.148;8.204;2023-04-15T02:36:08;101060.06;;;7.97;100.00
48968;BME280;46511;53.148;8.204;2023-04-15T02:38:41;101061.47;;;7.84;100.00
48968;BME280;46511;53.148;8.204;2023-04-15T02:41:13;101068.75;;;7.79;100.00
48968;BME280;46511;53.148;8.204;2023-04-15T02:43:44;101062.84;;;7.72;100.00
48968;BME280;46511;53.148;8.204;2023-04-15T02:46:16;101069.47;;;7.82;100.00
48968;BME280;46511;53.148;8.204;2023-04-15T02:48:47;101058.75;;;7.85;100.00
48968;BME280;46511;53.148;8.204;2023-04-15T02:51:20;101068.56;;;7.83;100.00
48968;BME280;46511;53.148;8.204;2023-04-15T02:53:52;101070.56;;;7.77;100.00
48968;BME280;46511;53.148;8.204;2023-04-15T02:56:23;101076.13;;;7.70;100.00
48968;BME280;46511;53.148;8.204;2023-04-15T02:58:55;101072.31;;;7.78;100.00
48968;BME280;46511;53.148;8.204;2023-04-15T03:01:26;101063.56;;;7.76;100.00
48968;BME280;46511;53.148;8.204;2023-04-15T03:03:58;101067.44;;;7.67;100.00
48968;BME280;46511;53.148;8.204;2023-04-15T03:06:29;101066.78;;;7.62;100.00
48968;BME280;46511;53.148;8.204;2023-04-15T03:09:01;101064.19;;;7.60;100.00
48968;BME280;46511;53.148;8.204;2023-04-15T03:11:37;101062.72;;;7.53;100.00
48968;BME280;46511;53.148;8.204;2023-04-15T03:14:10;101061.00;;;7.52;100.00
48968;BME280;46511;53.148;8.204;2023-04-15T03:16:41;101064.63;;;7.50;100.00
48968;BME280;46511;53.148;8.204;2023-04-15T03:19:13;101063.06;;;7.44;100.00
48968;BME280;46511;53.148;8.204;2023-04-15T03:21:44;101057.78;;;7.44;100.00
48968;BME280;46511;53.148;8.204;2023-04-15T03:24:15;101057.63;;;7.49;100.00
48968;BME280;46511;53.148;8.204;2023-04-15T03:26:47;101057.44;;;7.53;100.00
48968;BME280;46511;53.148;8.204;2023-04-15T03:29:18;101056.28;;;7.60;100.00
48968;BME280;46511;53.148;8.204;2023-04-15T03:31:49;101056.94;;;7.65;100.00
48968;BME280;46511;53.148;8.204;2023-04-15T03:34:22;101058.47;;;7.71;100.00
48968;BME280;46511;53.148;8.204;2023-04-15T03:36:53;101057.56;;;7.72;100.00
48968;BME280;46511;53.148;8.204;2023-04-15T03:39:24;101052.25;;;7.72;100.00
48968;BME280;46511;53.148;8.204;2023-04-15T03:41:56;101056.56;;;7.74;100.00
48968;BME280;46511;53.148;8.204;2023-04-15T03:44:22;101044.03;;;7.80;100.00
48968;BME280;46511;53.148;8.204;2023-04-15T03:46:53;101041.38;;;7.80;100.00
48968;BME280;46511;53.148;8.204;2023-04-15T03:49:25;101047.47;;;7.82;100.00
48968;BME280;46511;53.148;8.204;2023-04-15T03:51:56;101046.34;;;7.87;100.00
48968;BME280;46511;53.148;8.204;2023-04-15T03:54:27;101041.94;;;7.88;100.00
48968;BME280;46511;53.148;8.204;2023-04-15T03:56:59;101051.44;;;7.92;100.00
48968;BME280;46511;53.148;8.204;2023-04-15T03:59:30;101047.94;;;7.91;100.00
48968;BME280;46511;53.148;8.204;2023-04-15T04:02:01;101046.94;;;7.94;100.00
48968;BME280;46511;53.148;8.204;2023-04-15T04:04:32;101051.19;;;7.98;100.00
48968;BME280;46511;53.148;8.204;2023-04-15T04:07:04;101052.59;;;8.07;100.00
48968;BME280;46511;53.148;8.204;2023-04-15T04:09:35;101048.50;;;8.20;100.00
48968;BME280;46511;53.148;8.204;2023-04-15T04:12:09;101045.53;;;8.07;100.00
48968;BME280;46511;53.148;8.204;2023-04-15T04:14:40;101047.03;;;8.33;100.00
48968;BME280;46511;53.148;8.204;2023-04-15T04:17:11;101039.81;;;8.38;100.00
48968;BME280;46511;53.148;8.204;2023-04-15T04:19:43;101039.59;;;8.43;100.00
48968;BME280;46511;53.148;8.204;2023-04-15T04:22:14;101046.75;;;8.41;100.00
48968;BME280;46511;53.148;8.204;2023-04-15T04:24:45;101048.41;;;8.64;100.00
48968;BME280;46511;53.148;8.204;2023-04-15T04:27:16;101049.91;;;8.69;100.00
48968;BME280;46511;53.148;8.204;2023-04-15T04:29:48;101041.25;;;8.66;100.00
48968;BME280;46511;53.148;8.204;2023-04-15T04:32:19;101044.75;;;8.66;100.00
48968;BME280;46511;53.148;8.204;2023-04-15T04:34:51;101052.03;;;8.81;100.00
48968;BME280;46511;53.148;8.204;2023-04-15T04:37:22;101053.94;;;8.78;100.00
48968;BME280;46511;53.148;8.204;2023-04-15T04:39:54;101048.84;;;8.73;100.00
48968;BME280;46511;53.148;8.204;2023-04-15T04:42:26;101060.00;;;8.80;100.00
48968;BME280;46511;53.148;8.204;2023-04-15T04:44:57;101057.03;;;8.87;100.00
48968;BME280;46511;53.148;8.204;2023-04-15T04:47:28;101064.22;;;9.04;100.00
48968;BME280;46511;53.148;8.204;2023-04-15T04:50:00;101059.75;;;9.05;100.00
48968;BME280;46511;53.148;8.204;2023-04-15T04:52:31;101060.19;;;9.14;100.00
48968;BME280;46511;53.148;8.204;2023-04-15T04:55:02;101058.75;;;9.07;100.00
48968;BME280;46511;53.148;8.204;2023-04-15T04:57:34;101063.97;;;9.09;100.00
48968;BME280;46511;53.148;8.204;2023-04-15T05:00:09;101060.47;;;9.27;100.00
48968;BME280;46511;53.148;8.204;2023-04-15T05:02:41;101065.94;;;9.24;100.00
48968;BME280;46511;53.148;8.204;2023-04-15T05:05:13;101063.78;;;9.32;100.00
48968;BME280;46511;53.148;8.204;2023-04-15T05:07:45;101064.06;;;9.26;100.00
48968;BME280;46511;53.148;8.204;2023-04-15T05:10:17;101067.56;;;9.45;100.00
48968;BME280;46511;53.148;8.204;2023-04-15T05:12:48;101065.25;;;9.57;100.00
48968;BME280;46511;53.148;8.204;2023-04-15T05:15:20;101070.00;;;9.69;100.00
48968;BME280;46511;53.148;8.204;2023-04-15T05:17:51;101066.41;;;9.70;100.00
48968;BME280;46511;53.148;8.204;2023-04-15T05:20:22;101073.75;;;9.82;100.00
48968;BME280;46511;53.148;8.204;2023-04-15T05:22:54;101072.03;;;9.81;100.00
48968;BME280;46511;53.148;8.204;2023-04-15T05:25:25;101074.63;;;9.83;100.00
48968;BME280;46511;53.148;8.204;2023-04-15T05:27:56;101075.72;;;9.79;100.00
48968;BME280;46511;53.148;8.204;2023-04-15T05:30:28;101080.97;;;9.61;100.00
48968;BME280;46511;53.148;8.204;2023-04-15T05:32:59;101083.25;;;9.69;100.00
48968;BME280;46511;53.148;8.204;2023-04-15T05:35:30;101078.47;;;9.94;100.00
48968;BME280;46511;53.148;8.204;2023-04-15T05:38:02;101085.63;;;9.92;100.00
48968;BME280;46511;53.148;8.204;2023-04-15T05:40:33;101080.59;;;10.05;100.00
48968;BME280;46511;53.148;8.204;2023-04-15T05:43:04;101087.47;;;10.09;100.00
48968;BME280;46511;53.148;8.204;2023-04-15T05:45:36;101089.22;;;9.91;100.00
48968;BME280;46511;53.148;8.204;2023-04-15T05:48:07;101082.00;;;10.12;100.00
48968;BME280;46511;53.148;8.204;2023-04-15T05:50:41;101085.84;;;10.07;100.00
48968;BME280;46511;53.148;8.204;2023-04-15T05:53:13;101097.78;;;10.15;100.00
48968;BME280;46511;53.148;8.204;2023-04-15T05:55:44;101099.78;;;10.29;100.00
48968;BME280;46511;53.148;8.204;2023-04-15T05:58:15;101098.34;;;10.22;100.00
48968;BME280;46511;53.148;8.204;2023-04-15T06:00:47;101096.84;;;10.16;100.00
48968;BME280;46511;53.148;8.204;2023-04-15T06:03:18;101099.13;;;10.41;100.00
48968;BME280;46511;53.148;8.204;2023-04-15T06:05:49;101106.41;;;10.38;100.00
48968;BME280;46511;53.148;8.204;2023-04-15T06:08:20;101110.41;;;10.29;100.00
48968;BME280;46511;53.148;8.204;2023-04-15T06:10:52;101114.06;;;10.26;100.00
48968;BME280;46511;53.148;8.204;2023-04-15T06:13:23;101114.53;;;9.98;100.00
48968;BME280;46511;53.148;8.204;2023-04-15T06:15:54;101117.44;;;10.11;100.00
48968;BME280;46511;53.148;8.204;2023-04-15T06:18:26;101119.16;;;10.12;100.00
48968;BME280;46511;53.148;8.204;2023-04-15T06:20:57;101123.84;;;10.26;100.00
48968;BME280;46511;53.148;8.204;2023-04-15T06:23:28;101120.72;;;10.35;100.00
48968;BME280;46511;53.148;8.204;2023-04-15T06:26:00;101130.41;;;10.36;100.00
48968;BME280;46511;53.148;8.204;2023-04-15T06:28:31;101130.47;;;10.35;100.00
48968;BME280;46511;53.148;8.204;2023-04-15T06:31:03;101127.56;;;10.39;100.00
48968;BME280;46511;53.148;8.204;2023-04-15T06:33:34;101132.59;;;10.45;100.00
48968;BME280;46511;53.148;8.204;2023-04-15T06:36:05;101130.41;;;10.53;100.00
48968;BME280;46511;53.148;8.204;2023-04-15T06:38:37;101128.38;;;10.58;100.00
48968;BME280;46511;53.148;8.204;2023-04-15T06:41:08;101135.00;;;10.50;100.00
48968;BME280;46511;53.148;8.204;2023-04-15T06:43:39;101132.19;;;10.70;100.00
48968;BME280;46511;53.148;8.204;2023-04-15T06:46:11;101128.06;;;10.47;100.00
48968;BME280;46511;53.148;8.204;2023-04-15T06:48:42;101138.69;;;10.65;100.00
48968;BME280;46511;53.148;8.204;2023-04-15T06:51:14;101131.47;;;10.84;100.00
48968;BME280;46511;53.148;8.204;2023-04-15T06:53:45;101134.72;;;11.06;100.00
48968;BME280;46511;53.148;8.204;2023-04-15T06:56:16;101132.22;;;10.53;100.00
48968;BME280;46511;53.148;8.204;2023-04-15T06:58:48;101137.44;;;10.72;100.00
48968;BME280;46511;53.148;8.204;2023-04-15T07:01:19;101140.00;;;10.56;100.00
48968;BME280;46511;53.148;8.204;2023-04-15T07:03:51;101133.34;;;10.99;100.00
48968;BME280;46511;53.148;8.204;2023-04-15T07:06:22;101134.44;;;10.61;100.00
48968;BME280;46511;53.148;8.204;2023-04-15T07:08:53;101137.56;;;10.86;100.00
48968;BME280;46511;53.148;8.204;2023-04-15T07:11:26;101136.97;;;10.64;100.00
48968;BME280;46511;53.148;8.204;2023-04-15T07:13:57;101142.56;;;10.92;100.00
48968;BME280;46511;53.148;8.204;2023-04-15T07:16:28;101147.25;;;10.87;100.00
48968;BME280;46511;53.148;8.204;2023-04-15T07:18:59;101151.88;;;10.66;100.00
48968;BME280;46511;53.148;8.204;2023-04-15T07:21:31;101141.56;;;10.60;100.00
48968;BME280;46511;53.148;8.204;2023-04-15T07:24:02;101149.88;;;10.71;100.00
48968;BME280;46511;53.148;8.204;2023-04-15T07:26:33;101153.78;;;10.64;100.00
48968;BME280;46511;53.148;8.204;2023-04-15T07:29:05;101163.03;;;10.38;100.00
48968;BME280;46511;53.148;8.204;2023-04-15T07:31:36;101158.06;;;10.67;100.00
48968;BME280;46511;53.148;8.204;2023-04-15T07:34:07;101160.56;;;10.87;100.00
48968;BME280;46511;53.148;8.204;2023-04-15T07:36:39;101165.09;;;10.68;100.00
48968;BME280;46511;53.148;8.204;2023-04-15T07:39:10;101159.78;;;10.68;100.00
48968;BME280;46511;53.148;8.204;2023-04-15T07:41:41;101172.72;;;10.39;100.00
48968;BME280;46511;53.148;8.204;2023-04-15T07:44:13;101161.50;;;10.69;100.00
48968;BME280;46511;53.148;8.204;2023-04-15T07:46:44;101165.66;;;10.74;100.00
48968;BME280;46511;53.148;8.204;2023-04-15T07:49:16;101165.88;;;10.70;100.00
48968;BME280;46511;53.148;8.204;2023-04-15T07:51:49;101164.06;;;10.70;100.00
48968;BME280;46511;53.148;8.204;2023-04-15T07:54:21;101166.88;;;10.84;100.00
48968;BME280;46511;53.148;8.204;2023-04-15T07:56:52;101169.28;;;10.89;100.00
48968;BME280;46511;53.148;8.204;2023-04-15T07:59:23;101172.19;;;11.35;100.00
48968;BME280;46511;53.148;8.204;2023-04-15T08:01:55;101168.13;;;11.61;100.00
48968;BME280;46511;53.148;8.204;2023-04-15T08:04:26;101157.94;;;11.20;100.00
48968;BME280;46511;53.148;8.204;2023-04-15T08:06:58;101175.16;;;11.13;100.00
48968;BME280;46511;53.148;8.204;2023-04-15T08:09:29;101164.97;;;11.37;100.00
48968;BME280;46511;53.148;8.204;2023-04-15T08:12:01;101176.88;;;11.47;100.00
48968;BME280;46511;53.148;8.204;2023-04-15T08:14:33;101175.84;;;11.65;100.00
48968;BME280;46511;53.148;8.204;2023-04-15T08:17:05;101171.75;;;11.76;100.00
48968;BME280;46511;53.148;8.204;2023-04-15T08:19:37;101171.06;;;11.56;100.00
48968;BME280;46511;53.148;8.204;2023-04-15T08:22:09;101179.63;;;11.61;100.00
48968;BME280;46511;53.148;8.204;2023-04-15T08:24:41;101174.94;;;11.66;100.00
48968;BME280;46511;53.148;8.204;2023-04-15T08:27:13;101185.00;;;11.44;100.00
48968;BME280;46511;53.148;8.204;2023-04-15T08:29:44;101185.00;;;11.44;100.00
48968;BME280;46511;53.148;8.204;2023-04-15T08:32:15;101185.13;;;11.58;100.00
48968;BME280;46511;53.148;8.204;2023-04-15T08:34:47;101187.53;;;11.63;100.00
48968;BME280;46511;53.148;8.204;2023-04-15T08:37:18;101180.63;;;11.43;100.00
48968;BME280;46511;53.148;8.204;2023-04-15T08:39:50;101177.50;;;11.35;100.00
48968;BME280;46511;53.148;8.204;2023-04-15T08:42:22;101176.50;;;11.37;100.00
48968;BME280;46511;53.148;8.204;2023-04-15T08:45:01;101184.88;;;11.79;100.00
48968;BME280;46511;53.148;8.204;2023-04-15T08:47:34;101179.81;;;11.74;100.00
48968;BME280;46511;53.148;8.204;2023-04-15T08:50:09;101178.94;;;11.58;100.00
48968;BME280;46511;53.148;8.204;2023-04-15T08:52:41;101184.13;;;11.77;100.00
48968;BME280;46511;53.148;8.204;2023-04-15T08:55:13;101188.81;;;11.71;100.00
48968;BME280;46511;53.148;8.204;2023-04-15T08:57:46;101185.97;;;11.74;100.00
48968;BME280;46511;53.148;8.204;2023-04-15T09:00:17;101185.00;;;11.93;100.00
48968;BME280;46511;53.148;8.204;2023-04-15T09:02:49;101194.25;;;11.70;100.00
48968;BME280;46511;53.148;8.204;2023-04-15T09:05:20;101191.53;;;12.03;100.00
48968;BME280;46511;53.148;8.204;2023-04-15T09:07:52;101186.16;;;11.71;100.00
48968;BME280;46511;53.148;8.204;2023-04-15T09:10:24;101197.34;;;11.45;100.00
48968;BME280;46511;53.148;8.204;2023-04-15T09:12:55;101195.41;;;11.49;100.00
48968;BME280;46511;53.148;8.204;2023-04-15T09:15:27;101199.75;;;11.83;100.00
48968;BME280;46511;53.148;8.204;2023-04-15T09:17:59;101202.59;;;12.11;100.00
48968;BME280;46511;53.148;8.204;2023-04-15T09:20:37;101209.22;;;12.36;100.00
48968;BME280;46511;53.148;8.204;2023-04-15T09:23:11;101212.06;;;11.52;100.00
48968;BME280;46511;53.148;8.204;2023-04-15T09:25:44;101224.28;;;12.05;100.00
48968;BME280;46511;53.148;8.204;2023-04-15T09:28:15;101210.63;;;11.62;100.00
48968;BME280;46511;53.148;8.204;2023-04-15T09:30:54;101219.47;;;11.96;100.00
48968;BME280;46511;53.148;8.204;2023-04-15T09:33:29;101208.47;;;11.36;100.00
48968;BME280;46511;53.148;8.204;2023-04-15T09:36:02;101220.31;;;11.63;100.00
48968;BME280;46511;53.148;8.204;2023-04-15T09:38:35;101222.13;;;11.30;100.00
48968;BME280;46511;53.148;8.204;2023-04-15T09:41:25;101225.84;;;11.10;100.00
48968;BME280;46511;53.148;8.204;2023-04-15T09:43:58;101232.03;;;11.26;100.00
48968;BME280;46511;53.148;8.204;2023-04-15T09:46:42;101236.91;;;11.68;100.00
48968;BME280;46511;53.148;8.204;2023-04-15T09:49:14;101247.09;;;11.60;100.00
48968;BME280;46511;53.148;8.204;2023-04-15T09:51:46;101239.38;;;11.71;100.00
48968;BME280;46511;53.148;8.204;2023-04-15T09:54:20;101236.25;;;11.48;100.00
48968;BME280;46511;53.148;8.204;2023-04-15T09:56:51;101248.72;;;11.30;100.00
48968;BME280;46511;53.148;8.204;2023-04-15T09:59:23;101248.00;;;11.77;100.00
48968;BME280;46511;53.148;8.204;2023-04-15T10:01:55;101234.84;;;11.73;100.00
48968;BME280;46511;53.148;8.204;2023-04-15T10:04:27;101240.41;;;11.36;100.00
48968;BME280;46511;53.148;8.204;2023-04-15T10:06:55;101239.66;;;11.16;100.00
48968;BME280;46511;53.148;8.204;2023-04-15T10:09:27;101253.88;;;11.33;100.00
48968;BME280;46511;53.148;8.204;2023-04-15T10:11:59;101250.34;;;11.50;100.00
48968;BME280;46511;53.148;8.204;2023-04-15T10:14:34;101242.59;;;11.45;100.00
48968;BME280;46511;53.148;8.204;2023-04-15T10:17:11;101258.19;;;11.68;100.00
48968;BME280;46511;53.148;8.204;2023-04-15T10:19:44;101235.34;;;11.31;100.00
48968;BME280;46511;53.148;8.204;2023-04-15T10:22:16;101257.00;;;11.41;100.00
48968;BME280;46511;53.148;8.204;2023-04-15T10:24:48;101253.66;;;11.20;100.00
48968;BME280;46511;53.148;8.204;2023-04-15T10:27:21;101254.03;;;11.47;100.00
48968;BME280;46511;53.148;8.204;2023-04-15T10:29:53;101249.31;;;11.52;100.00
48968;BME280;46511;53.148;8.204;2023-04-15T10:32:24;101244.50;;;11.26;100.00
48968;BME280;46511;53.148;8.204;2023-04-15T10:34:56;101239.72;;;11.65;100.00
48968;BME280;46511;53.148;8.204;2023-04-15T10:37:33;101242.28;;;12.00;100.00
48968;BME280;46511;53.148;8.204;2023-04-15T10:40:25;101239.28;;;12.53;100.00
48968;BME280;46511;53.148;8.204;2023-04-15T10:43:01;101236.97;;;12.00;100.00
48968;BME280;46511;53.148;8.204;2023-04-15T10:45:34;101229.34;;;11.94;100.00
48968;BME280;46511;53.148;8.204;2023-04-15T10:48:06;101243.06;;;12.02;100.00
48968;BME280;46511;53.148;8.204;2023-04-15T10:50:38;101236.63;;;12.38;100.00
48968;BME280;46511;53.148;8.204;2023-04-15T10:53:10;101243.41;;;12.27;100.00
48968;BME280;46511;53.148;8.204;2023-04-15T10:55:36;101239.41;;;12.66;100.00
48968;BME280;46511;53.148;8.204;2023-04-15T10:58:08;101243.75;;;12.53;100.00
48968;BME280;46511;53.148;8.204;2023-04-15T11:00:43;101245.13;;;11.97;100.00
48968;BME280;46511;53.148;8.204;2023-04-15T11:03:35;101248.94;;;12.24;100.00
48968;BME280;46511;53.148;8.204;2023-04-15T11:06:08;101253.78;;;12.64;100.00
48968;BME280;46511;53.148;8.204;2023-04-15T11:08:55;101259.09;;;12.79;100.00
48968;BME280;46511;53.148;8.204;2023-04-15T11:12:03;101253.84;;;12.78;100.00
48968;BME280;46511;53.148;8.204;2023-04-15T11:14:40;101255.78;;;12.28;100.00
48968;BME280;46511;53.148;8.204;2023-04-15T11:17:13;101259.22;;;11.99;100.00
48968;BME280;46511;53.148;8.204;2023-04-15T11:19:45;101268.25;;;11.96;100.00
48968;BME280;46511;53.148;8.204;2023-04-15T11:22:16;101266.88;;;12.05;100.00
48968;BME280;46511;53.148;8.204;2023-04-15T11:24:48;101268.03;;;11.84;100.00
48968;BME280;46511;53.148;8.204;2023-04-15T11:27:21;101274.88;;;12.05;100.00
48968;BME280;46511;53.148;8.204;2023-04-15T11:29:48;101276.88;;;11.84;100.00
48968;BME280;46511;53.148;8.204;2023-04-15T11:32:20;101284.06;;;12.31;100.00
48968;BME280;46511;53.148;8.204;2023-04-15T11:34:51;101284.47;;;11.74;100.00
48968;BME280;46511;53.148;8.204;2023-04-15T11:37:28;101281.19;;;12.02;100.00
48968;BME280;46511;53.148;8.204;2023-04-15T11:40:01;101285.13;;;11.80;100.00
48968;BME280;46511;53.148;8.204;2023-04-15T11:42:33;101279.69;;;11.48;100.00
48968;BME280;46511;53.148;8.204;2023-04-15T11:45:11;101287.59;;;11.65;100.00
48968;BME280;46511;53.148;8.204;2023-04-15T11:47:44;101290.84;;;11.55;100.00
48968;BME280;46511;53.148;8.204;2023-04-15T11:50:19;101293.56;;;11.88;100.00
48968;BME280;46511;53.148;8.204;2023-04-15T11:52:56;101291.75;;;11.38;100.00
48968;BME280;46511;53.148;8.204;2023-04-15T11:55:28;101292.34;;;11.43;100.00
48968;BME280;46511;53.148;8.204;2023-04-15T11:58:09;101300.66;;;11.02;100.00
48968;BME280;46511;53.148;8.204;2023-04-15T12:00:50;101302.81;;;11.46;100.00
48968;BME280;46511;53.148;8.204;2023-04-15T12:03:27;101308.16;;;11.46;100.00
48968;BME280;46511;53.148;8.204;2023-04-15T12:08:55;101316.94;;;11.13;100.00
48968;BME280;46511;53.148;8.204;2023-04-15T12:11:37;101307.38;;;11.27;100.00
48968;BME280;46511;53.148;8.204;2023-04-15T12:16:48;101312.69;;;11.27;100.00
48968;BME280;46511;53.148;8.204;2023-04-15T12:19:22;101321.44;;;11.63;100.00
48968;BME280;46511;53.148;8.204;2023-04-15T12:21:56;101317.38;;;11.04;100.00
48968;BME280;46511;53.148;8.204;2023-04-15T12:24:33;101328.31;;;10.98;100.00
48968;BME280;46511;53.148;8.204;2023-04-15T12:27:06;101336.97;;;11.21;100.00
48968;BME280;46511;53.148;8.204;2023-04-15T12:29:39;101335.31;;;11.35;100.00
48968;BME280;46511;53.148;8.204;2023-04-15T12:34:41;101331.94;;;11.66;100.00
48968;BME280;46511;53.148;8.204;2023-04-15T12:37:15;101336.78;;;11.76;100.00
48968;BME280;46511;53.148;8.204;2023-04-15T12:39:47;101335.25;;;12.20;100.00
48968;BME280;46511;53.148;8.204;2023-04-15T12:42:19;101340.84;;;11.65;100.00
48968;BME280;46511;53.148;8.204;2023-04-15T12:44:52;101346.97;;;11.85;100.00
48968;BME280;46511;53.148;8.204;2023-04-15T12:47:18;101349.47;;;11.88;100.00
48968;BME280;46511;53.148;8.204;2023-04-15T12:49:50;101354.03;;;11.86;100.00
48968;BME280;46511;53.148;8.204;2023-04-15T12:52:21;101349.78;;;11.82;100.00
48968;BME280;46511;53.148;8.204;2023-04-15T12:54:54;101355.81;;;12.18;100.00
48968;BME280;46511;53.148;8.204;2023-04-15T12:57:25;101361.31;;;12.15;100.00
48968;BME280;46511;53.148;8.204;2023-04-15T12:59:56;101358.84;;;11.95;100.00
48968;BME280;46511;53.148;8.204;2023-04-15T13:02:28;101361.19;;;11.84;100.00
48968;BME280;46511;53.148;8.204;2023-04-15T13:04:59;101364.00;;;11.98;100.00
48968;BME280;46511;53.148;8.204;2023-04-15T13:07:30;101374.16;;;12.07;100.00
48968;BME280;46511;53.148;8.204;2023-04-15T13:10:01;101367.25;;;11.87;100.00
48968;BME280;46511;53.148;8.204;2023-04-15T13:12:33;101376.53;;;11.61;100.00
48968;BME280;46511;53.148;8.204;2023-04-15T13:15:07;101377.31;;;11.63;100.00
48968;BME280;46511;53.148;8.204;2023-04-15T13:17:41;101388.03;;;11.79;100.00
48968;BME280;46511;53.148;8.204;2023-04-15T13:20:07;101384.97;;;11.35;100.00